Edenburg, Pennsylvania
Current Conditions -  °F | °C
As of 10:54 AM on Friday 19 Dec 2014 (Local Time) from KRDG Reporting Station
Overcast Overcast  
Wind Chill: 29°   Ceiling: 3500
Heat Index: 38°   Visibility: 10mi
Dew Point: 23°   Wind: 15mph
Humidity: 55%   Direction: 310°NW
Pressure: 30.09"   Gusts: NA
Location:  40.5494°N, 75.999°W
Report Text: KRDG 191554Z 31013KT 10SM OVC035 03/M05 A3009 RMK AO2 SLP196 T00331050
Loading
Personal Weather Stations






























Interactive Weather Map New forecast layout! Learn more

10-Day Weather Forecast

Advertisements
Track Severe Weather on mobile